TOURFACTS.DK  
Stats and Facts from Tour de France.

Tour de France 2018 starts in 12 days
  Riders   Stages   Teams   Summits   Yearly  


 
Search by year

After 2017 - Stage 21:
 14824 starters.
  5132 different riders.
  639 teams.
  2232 stages.
  456 restdays.
  439589.60 km.
  5653 abandonnees.


Top 3
GC
Christopher Froome86:20:55
Rigoberto Urán86:21:49
Romain Bardet86:23:15
Climb
Warren Barguil169 pt.
Primoz Roglic80 pt.
Thomas De Gendt64 pt.
Sprint
Michael Matthews359 pt.
André Greipel234 pt.
Edvald Boasson Hagen220 pt.
Youth
Simon Yates86:27:09
Louis Meintjes86:29:15
Emanuel Buchmann86:54:16
Facts from Tour de France 1949
  |   Stages.  |   Stage winners.  |   Days in yellow  |   Average speed.  |   Route.  |   Teams.  |   All riders.  |   Rookies.  |  

  |   Withdrawls.  |   GC.  |   Polka  |   Green  |   White  |   Summits. (In tour)  |   Miscellaneous.  |  

Stage 13 on 14 - 07 - 1949
         Owning:    Vittorio Magni    
Pick a stage:  1 2 3 4 5 6 7 8 9 10 11 12 13 14 15 16 17 18 19 20 21
  ToulouseNîmes | Dist: 289.00 km.

Average speed for all riders in stage:  33,725 km./hr.
    Place:Name:Team:Time:Km/h:
FRAEmile IdéeFRAIle De France08:29:04  +  00:00:00=34,062 
BELRoger LambrechtBELBelgium08:29:04  +  00:00:00=34,062 
BELMarcel DupontBELAiglons Belges08:29:04  +  00:00:00=34,062 
4 ITAGiuseppe AusendaITACadetti Italiens08:29:04  +  00:00:00=34,062 
5 FRALucien TeisseireFRAFrance08:29:04  +  00:00:00=34,062 
6 FRAEdouard MullerFRAIle De France08:30:48  +  00:01:44=33,947 
7 LUXJean DiederichLUXLuxembourg08:33:20  +  00:04:16=33,779 
8 SUIFerdi KüblerCHESwitzerland08:33:20  +  00:04:16=33,779 
9 BELRik Van SteenbergenBELBelgium08:33:20  +  00:04:16=33,779 
10 BELStan OckersBELBelgium08:33:20  +  00:04:16=33,779 
11 MARCustodio Dos ReisFRACenter-South West08:33:20  +  00:04:16=33,779 
12 FRAAndré BruléFRAIle De France08:33:20  +  00:04:16=33,779 
13 FRARoger LevequeFRACenter-South West08:33:20  +  00:04:16=33,779 
14 SUIGeorges AeschlimannCHESwitzerland08:33:20  +  00:04:16=33,779 
15 ITAÉdouard FachleitnerFRASouth-East08:33:20  +  00:04:16=33,779 
16 BELJoseph VerhaertBELAiglons Belges08:33:20  +  00:04:16=33,779 
17 FRAPaul GiguetFRASouth-East08:33:20  +  00:04:16=33,779 
18 BELMarcel HendrickxBELAiglons Belges08:33:20  +  00:04:16=33,779 
19 BELJacques GeusBELAiglons Belges08:33:20  +  00:04:16=33,779 
20 ITANello LaurediFRASouth-East08:33:20  +  00:04:16=33,779 
21 FRAGeorges MartinFRASouth-East08:33:20  +  00:04:16=33,779 
22 BELMarcel De MulderBELAiglons Belges08:33:20  +  00:04:16=33,779 
23 ITAAdolphe DeleddaFRASouth-East08:33:20  +  00:04:16=33,779 
24 ITAFermo CamelliniFRASouth-East08:33:20  +  00:04:16=33,779 
25 FRAJacques MarinelliFRAIle De France08:33:20  +  00:04:16=33,779 
26 FRAAlbert DolhatsFRACenter-South West08:33:20  +  00:04:16=33,779 
27 FRAJean RobicFRAWest-North08:33:20  +  00:04:16=33,779 
28 FRAHenri MassalFRACenter-South West08:33:20  +  00:04:16=33,779 
29 FRAAntonin RollandFRASouth-East08:33:20  +  00:04:16=33,779 
30 FRAAndre MahéFRAWest-North08:33:20  +  00:04:16=33,779 
31 FRAJean-Marie GoasmatFRAWest-North08:33:20  +  00:04:16=33,779 
32 FRAPaul PineauFRACenter-South West08:33:20  +  00:04:16=33,779 
33 FRAPierre CoganFRAWest-North08:33:20  +  00:04:16=33,779 
34 ITAGiuseppe TaccaFRAIle De France08:33:20  +  00:04:16=33,779 
35 FRAGeorges RamouluxFRACenter-South West08:33:20  +  00:04:16=33,779 
36 ITAArmando PeverelliITACadetti Italiens08:33:20  +  00:04:16=33,779 
37 ITASylvio PedroniITACadetti Italiens08:33:20  +  00:04:16=33,779 
38 ITAGino BartaliITAItaly08:33:20  +  00:04:16=33,779 
39 BELFlorent MathieuBELBelgium08:33:20  +  00:04:16=33,779 
40 BELMarcel KintBELBelgium08:33:20  +  00:04:16=33,779 
41 BELDésiré KeteleerBELBelgium08:33:20  +  00:04:16=33,779 
42 ITALuciano PezziITAItaly08:33:20  +  00:04:16=33,779 
43 ITABruno PasquiniITAItaly08:33:20  +  00:04:16=33,779 
44 ITAEttore MilanoITAItaly08:33:20  +  00:04:16=33,779 
45 ITAFausto CoppiITAItaly08:33:20  +  00:04:16=33,779 
46 ITASerifano BiagioniITAItaly08:33:20  +  00:04:16=33,779 
47 BELBriek SchotteBELBelgium08:33:20  +  00:04:16=33,779 
48 ITAVittorio MagniITACadetti Italiens08:33:20  +  00:04:16=33,779 
49 LUXJean GoldschmitLUXLuxembourg08:33:20  +  00:04:16=33,779 
50 FRARené ViettoFRAFrance08:33:20  +  00:04:16=33,779 
51 FRALucien LazaridesFRAFrance08:33:20  +  00:04:16=33,779 
52 FRAJean-Apotre LazaridesFRAFrance08:33:20  +  00:04:16=33,779 
53 FRARaphaël GeminianiFRAFrance08:33:20  +  00:04:16=33,779 
54 LUXJean KirchenLUXLuxembourg08:33:20  +  00:04:16=33,779 
55 FRALouis DeprezFRAFrance08:33:20  +  00:04:16=33,779 
56 ITAAlfredo MartiniITACadetti Italiens08:33:20  +  00:04:16=33,779 
57 SUIPierre BrambillaFRASouth-East08:33:40  +  00:04:36=33,757 
58 SUIGottfried WeilenmannCHESwitzerland08:35:48  +  00:06:44=33,618 
59 ITAGino SciardisITAItaly08:35:48  +  00:06:44=33,618 
60 FRARoger Le NizerhyFRAWest-North08:39:03  +  00:09:59=33,407 
61 FRAJean BlancFRACenter-South West08:39:03  +  00:09:59=33,407 
62 ITAMario RicciITAItaly08:40:46  +  00:11:42=33,297 
63 FRARobert ChapatteFRAFrance08:41:09  +  00:12:05=33,273 
64 GERCésar MarcelakFRAWest-North08:42:55  +  00:13:51=33,160 
65 ITAGiovanni CorrieriITAItaly08:43:02  +  00:13:58=33,153 
66 ITAAngelo BrignoleITAItaly08:43:02  +  00:13:58=33,153 
67 ITAGuido De SantiITAItaly08:43:02  +  00:13:58=33,153 
68 ITAVincenzo RosselloITAItaly08:43:02  +  00:13:58=33,153 

Withdrawls: 1
 
Rider
Team
Reason
99  FRARobert DesbatsFRACenter-South WestDid not finish

Todays birthdays.

1875  Jules Sales
1888  Leon Lannoy
1922  Henri Surbatis
1932  Ferdinand Devèze
1939  Dieter Puschel
1961  Gerhard Zadrobilek
1964  Javier Duch
1965  Clarence Knickman
1968  Michael Sandstød
1986  Simon Spilak




Visits: